Time;durP1;ratioP1;P1;durP2;ratioP2;P2;SDS_P1;SDS_P2;PMS_P1;PMS_P2;Temp;Humidity;BMP_temperature;BMP_pressure;BME280_temperature;BME280_humidity;BME280_pressure;Samples;Min_cycle;Max_cycle;Signal;HPM_P1;HPM_P2
2020/12/16 00:01:12;;;;;;;15.30;9.52;;;;;;;;;;5054609;28;20024;-76
2020/12/16 00:03:38;;;;;;;16.05;9.60;;;;;;;;;;5036620;28;20392;-75
2020/12/16 00:06:04;;;;;;;15.18;9.82;;;;;;;;;;5054397;28;20055;-81
2020/12/16 00:08:30;;;;;;;15.10;9.52;;;;;;;;;;5054430;28;20029;-80
2020/12/16 00:10:57;;;;;;;17.15;10.27;;;;;;;;;;5054307;28;20029;-81
2020/12/16 00:13:23;;;;;;;18.13;9.73;;;;;;;;;;5054341;28;20044;-81
2020/12/16 00:15:49;;;;;;;18.23;10.65;;;;;;;;;;5054277;28;20576;-81
2020/12/16 00:18:15;;;;;;;14.52;9.20;;;;;;;;;;5054283;28;20021;-82
2020/12/16 00:20:41;;;;;;;15.70;9.32;;;;;;;;;;5054078;28;20061;-81
2020/12/16 00:23:07;;;;;;;16.17;9.05;;;;;;;;;;5054353;28;20021;-81
2020/12/16 00:25:33;;;;;;;13.90;8.90;;;;;;;;;;5054020;28;20052;-81
2020/12/16 00:27:59;;;;;;;17.92;10.00;;;;;;;;;;5070829;28;20038;-82
2020/12/16 00:30:25;;;;;;;15.77;8.77;;;;;;;;;;5073614;28;20411;-82
2020/12/16 00:32:52;;;;;;;16.17;9.88;;;;;;;;;;5073893;28;20031;-81
2020/12/16 00:35:18;;;;;;;14.38;9.38;;;;;;;;;;5055921;28;20056;-74
2020/12/16 00:37:44;;;;;;;14.88;9.10;;;;;;;;;;5073869;28;20107;-81
2020/12/16 00:40:11;;;;;;;13.65;8.90;;;;;;;;;;5073934;28;20024;-74
2020/12/16 00:42:37;;;;;;;15.35;9.55;;;;;;;;;;5073990;28;20454;-81
2020/12/16 00:45:04;;;;;;;15.82;9.55;;;;;;;;;;5055797;28;20036;-82
2020/12/16 00:47:32;;;;;;;16.83;9.65;;;;;;;;;;5073781;28;20430;-81
2020/12/16 00:49:59;;;;;;;16.40;10.07;;;;;;;;;;5073638;28;20404;-81
2020/12/16 00:52:27;;;;;;;16.48;9.63;;;;;;;;;;5055910;28;20438;-81
2020/12/16 00:54:53;;;;;;;14.07;9.13;;;;;;;;;;5073426;28;20448;-81
2020/12/16 00:57:19;;;;;;;13.98;8.50;;;;;;;;;;5073546;28;20561;-81
2020/12/16 00:59:45;;;;;;;16.63;9.48;;;;;;;;;;5072152;28;20020;-81
2020/12/16 01:02:11;;;;;;;12.75;9.15;;;;;;;;;;5073115;28;20029;-79
2020/12/16 01:04:37;;;;;;;14.70;9.30;;;;;;;;;;5073897;28;20020;-81
2020/12/16 01:07:03;;;;;;;14.35;9.10;;;;;;;;;;5073816;28;20021;-81
2020/12/16 01:09:29;;;;;;;14.70;8.82;;;;;;;;;;5073588;28;20024;-81
2020/12/16 01:11:55;;;;;;;13.45;8.10;;;;;;;;;;5055687;28;20028;-80
2020/12/16 01:14:21;;;;;;;15.60;9.38;;;;;;;;;;5073624;28;20048;-78
2020/12/16 01:16:47;;;;;;;12.10;7.82;;;;;;;;;;5073406;28;20118;-81
2020/12/16 01:19:13;;;;;;;14.90;9.73;;;;;;;;;;5055553;28;20027;-81
2020/12/16 01:21:40;;;;;;;13.45;8.90;;;;;;;;;;5073728;28;20028;-81
2020/12/16 01:24:06;;;;;;;16.02;8.85;;;;;;;;;;5073279;28;20020;-81
2020/12/16 01:26:46;;;;;;;13.13;8.93;;;;;;;;;;5073346;28;20055;-80
2020/12/16 01:29:12;;;;;;;14.93;9.50;;;;;;;;;;5073237;28;20039;-77
2020/12/16 01:31:39;;;;;;;13.10;8.35;;;;;;;;;;5073325;28;20560;-78
2020/12/16 01:34:05;;;;;;;12.95;8.50;;;;;;;;;;5073134;28;20020;-79
2020/12/16 01:36:31;;;;;;;13.73;8.80;;;;;;;;;;5055031;28;20043;-82
2020/12/16 01:38:57;;;;;;;13.32;8.73;;;;;;;;;;5073149;28;20017;-81
2020/12/16 01:41:24;;;;;;;13.77;8.95;;;;;;;;;;5072832;28;20446;-80
2020/12/16 01:43:50;;;;;;;12.45;8.50;;;;;;;;;;5072859;28;20023;-81
2020/12/16 01:46:16;;;;;;;14.77;9.50;;;;;;;;;;5072977;28;20051;-81
2020/12/16 01:48:43;;;;;;;14.95;8.75;;;;;;;;;;5072953;28;20021;-79
2020/12/16 01:51:13;;;;;;;14.48;9.05;;;;;;;;;;5073127;28;20029;-80
2020/12/16 01:53:39;;;;;;;12.65;8.63;;;;;;;;;;5054924;28;20020;-79
2020/12/16 01:56:06;;;;;;;15.77;8.68;;;;;;;;;;5072623;28;20377;-81
2020/12/16 01:58:33;;;;;;;13.85;8.55;;;;;;;;;;5072851;28;20531;-80
2020/12/16 02:01:02;;;;;;;12.95;8.20;;;;;;;;;;5072694;28;20035;-81
2020/12/16 02:03:29;;;;;;;16.08;9.60;;;;;;;;;;5072654;28;20021;-80
2020/12/16 02:05:56;;;;;;;14.50;8.13;;;;;;;;;;5072536;28;20032;-82
2020/12/16 02:08:24;;;;;;;15.25;9.07;;;;;;;;;;5072561;28;20052;-80
2020/12/16 02:10:50;;;;;;;15.15;8.95;;;;;;;;;;5072280;28;20073;-82
2020/12/16 02:13:16;;;;;;;15.90;9.82;;;;;;;;;;5072339;28;20098;-82
2020/12/16 02:15:42;;;;;;;13.85;8.90;;;;;;;;;;5072482;28;20024;-74
2020/12/16 02:18:09;;;;;;;15.25;8.90;;;;;;;;;;5072219;28;20036;-81
2020/12/16 02:20:35;;;;;;;12.57;8.35;;;;;;;;;;5072440;28;20027;-82
2020/12/16 02:23:08;;;;;;;13.65;9.35;;;;;;;;;;5072291;28;20027;-82
2020/12/16 02:25:34;;;;;;;12.30;8.15;;;;;;;;;;5072229;28;20481;-80
2020/12/16 02:28:00;;;;;;;13.63;8.85;;;;;;;;;;5072424;28;20032;-80
2020/12/16 02:30:26;;;;;;;12.93;8.35;;;;;;;;;;5072454;28;20027;-81
2020/12/16 02:32:52;;;;;;;13.55;8.38;;;;;;;;;;5054371;28;20028;-79
2020/12/16 02:35:18;;;;;;;12.38;8.35;;;;;;;;;;5054475;28;20111;-79
2020/12/16 02:37:44;;;;;;;10.70;7.32;;;;;;;;;;5072229;28;20120;-77
2020/12/16 02:40:10;;;;;;;11.00;7.65;;;;;;;;;;5072504;28;20020;-81
2020/12/16 02:42:36;;;;;;;14.85;8.32;;;;;;;;;;5072332;28;20422;-82
2020/12/16 02:45:03;;;;;;;12.27;8.05;;;;;;;;;;5071882;28;20021;-80
2020/12/16 02:47:29;;;;;;;14.30;8.77;;;;;;;;;;5072285;28;20021;-81
2020/12/16 02:49:55;;;;;;;14.05;9.20;;;;;;;;;;5072304;28;20021;-82
2020/12/16 02:52:21;;;;;;;14.57;8.75;;;;;;;;;;5072163;28;20505;-81
2020/12/16 02:54:47;;;;;;;13.98;8.80;;;;;;;;;;5072134;28;20020;-81
2020/12/16 02:57:13;;;;;;;13.43;8.52;;;;;;;;;;5072009;28;20035;-81
2020/12/16 02:59:39;;;;;;;15.27;9.48;;;;;;;;;;5054217;28;20071;-80
2020/12/16 03:02:05;;;;;;;13.75;8.35;;;;;;;;;;5072104;28;20074;-82
2020/12/16 03:04:32;;;;;;;12.57;8.07;;;;;;;;;;5072148;28;20021;-81
2020/12/16 03:06:58;;;;;;;13.40;7.53;;;;;;;;;;5072168;28;20107;-81
2020/12/16 03:09:25;;;;;;;14.43;9.30;;;;;;;;;;5053996;28;20414;-81
2020/12/16 03:11:55;;;;;;;13.43;8.75;;;;;;;;;;5054033;28;20016;-81
2020/12/16 03:14:21;;;;;;;13.75;8.98;;;;;;;;;;5072072;28;20016;-82
2020/12/16 03:16:48;;;;;;;11.75;8.40;;;;;;;;;;5071949;28;20492;-81
2020/12/16 03:19:14;;;;;;;16.33;8.75;;;;;;;;;;5053981;28;20491;-81
2020/12/16 03:21:40;;;;;;;11.23;8.05;;;;;;;;;;5072349;28;20026;-81
2020/12/16 03:24:06;;;;;;;14.48;8.40;;;;;;;;;;5075802;28;20427;-80
2020/12/16 03:26:32;;;;;;;13.13;8.63;;;;;;;;;;5075831;28;20048;-82
2020/12/16 03:28:58;;;;;;;14.45;8.73;;;;;;;;;;5075923;28;20059;-81
2020/12/16 03:31:24;;;;;;;13.23;8.70;;;;;;;;;;5075857;28;20024;-81
2020/12/16 03:33:50;;;;;;;15.13;8.75;;;;;;;;;;5074833;28;20032;-81
2020/12/16 03:36:17;;;;;;;13.70;8.80;;;;;;;;;;5075454;28;20029;-81
2020/12/16 03:38:44;;;;;;;13.48;8.73;;;;;;;;;;5075541;28;20028;-80
2020/12/16 03:41:11;;;;;;;15.13;9.20;;;;;;;;;;5075678;28;20543;-81
2020/12/16 03:43:37;;;;;;;15.10;8.55;;;;;;;;;;5075730;28;20020;-81
2020/12/16 03:46:12;;;;;;;13.32;8.35;;;;;;;;;;5075265;28;20033;-81
2020/12/16 03:48:39;;;;;;;12.30;8.00;;;;;;;;;;5057626;28;20161;-81
2020/12/16 03:51:09;;;;;;;14.05;8.32;;;;;;;;;;5057443;28;20024;-81
2020/12/16 03:53:39;;;;;;;14.45;8.60;;;;;;;;;;5057384;28;20438;-72
2020/12/16 03:56:06;;;;;;;14.27;8.85;;;;;;;;;;5075152;28;20115;-80
2020/12/16 03:58:32;;;;;;;12.82;8.73;;;;;;;;;;5074914;28;20050;-81
2020/12/16 04:01:05;;;;;;;12.63;8.55;;;;;;;;;;5070471;28;20028;-79
2020/12/16 04:03:33;;;;;;;14.55;8.30;;;;;;;;;;5055074;28;20013;-73
2020/12/16 04:06:00;;;;;;;14.00;9.02;;;;;;;;;;5054554;28;20025;-81
2020/12/16 04:08:26;;;;;;;16.88;9.30;;;;;;;;;;5054810;28;20029;-80
2020/12/16 04:10:52;;;;;;;15.77;10.27;;;;;;;;;;5054948;28;20021;-80
2020/12/16 04:13:18;;;;;;;16.63;8.88;;;;;;;;;;5054907;28;20479;-81
2020/12/16 04:15:47;;;;;;;13.52;8.52;;;;;;;;;;5054178;28;20090;-78
2020/12/16 04:18:13;;;;;;;13.23;8.48;;;;;;;;;;5055852;28;20075;-80
2020/12/16 04:20:40;;;;;;;13.77;8.55;;;;;;;;;;5055489;28;20108;-77
2020/12/16 04:23:06;;;;;;;15.05;8.60;;;;;;;;;;5054822;28;20025;-78
2020/12/16 04:25:35;;;;;;;13.90;8.25;;;;;;;;;;5036211;28;20037;-77
2020/12/16 04:28:01;;;;;;;12.60;8.30;;;;;;;;;;5054355;28;20078;-82
2020/12/16 04:30:30;;;;;;;13.30;8.27;;;;;;;;;;5054383;28;20040;-78
2020/12/16 04:32:57;;;;;;;14.50;8.65;;;;;;;;;;5053986;28;20381;-81
2020/12/16 04:35:24;;;;;;;15.13;8.63;;;;;;;;;;5034952;28;20074;-81
2020/12/16 04:37:50;;;;;;;10.50;7.93;;;;;;;;;;5053275;28;20040;-79
2020/12/16 04:40:16;;;;;;;14.32;9.32;;;;;;;;;;5053756;28;20075;-80
2020/12/16 04:42:43;;;;;;;14.90;9.25;;;;;;;;;;5053293;28;20021;-82
2020/12/16 04:45:09;;;;;;;14.35;8.80;;;;;;;;;;5053446;28;20032;-81
2020/12/16 04:47:36;;;;;;;16.83;9.10;;;;;;;;;;5061604;28;20029;-80
2020/12/16 04:50:05;;;;;;;17.23;9.68;;;;;;;;;;5073577;28;20020;-81
2020/12/16 04:52:31;;;;;;;17.77;10.43;;;;;;;;;;5073354;28;20369;-79
2020/12/16 04:54:57;;;;;;;16.23;9.73;;;;;;;;;;5073530;28;20099;-79
2020/12/16 04:57:23;;;;;;;16.65;10.20;;;;;;;;;;5055918;28;20028;-80
2020/12/16 04:59:54;;;;;;;16.10;9.55;;;;;;;;;;5073521;28;20398;-78
2020/12/16 05:02:20;;;;;;;17.00;9.82;;;;;;;;;;5073602;28;20029;-79
2020/12/16 05:04:46;;;;;;;15.23;10.38;;;;;;;;;;5073453;28;20021;-79
2020/12/16 05:07:31;;;;;;;19.20;9.93;;;;;;;;;;5073495;28;20028;-78
2020/12/16 05:09:57;;;;;;;17.55;11.02;;;;;;;;;;5073197;28;20035;-79
2020/12/16 05:12:24;;;;;;;15.95;9.68;;;;;;;;;;5073016;28;20025;-77
2020/12/16 05:14:50;;;;;;;17.52;9.93;;;;;;;;;;5073364;28;20024;-81
2020/12/16 05:17:16;;;;;;;15.95;9.80;;;;;;;;;;5072882;28;20028;-80
2020/12/16 05:19:45;;;;;;;16.38;9.68;;;;;;;;;;5073151;28;20028;-74
2020/12/16 05:22:14;;;;;;;15.02;8.73;;;;;;;;;;5055650;28;20380;-75
2020/12/16 05:24:41;;;;;;;13.98;8.70;;;;;;;;;;5072614;28;20025;-82
2020/12/16 05:27:13;;;;;;;14.50;9.45;;;;;;;;;;5073145;28;20047;-81
2020/12/16 05:29:39;;;;;;;17.33;11.35;;;;;;;;;;5073402;28;20036;-84
2020/12/16 05:32:18;;;;;;;18.42;10.40;;;;;;;;;;5073079;28;20071;-80
2020/12/16 05:34:44;;;;;;;15.35;9.88;;;;;;;;;;5072945;28;20035;-80
2020/12/16 05:37:28;;;;;;;21.63;12.15;;;;;;;;;;5055292;28;20039;-81
2020/12/16 05:39:55;;;;;;;18.70;12.00;;;;;;;;;;5072471;28;20016;-82
2020/12/16 05:42:23;;;;;;;20.30;11.57;;;;;;;;;;5072396;28;20098;-82
2020/12/16 05:44:49;;;;;;;20.30;12.18;;;;;;;;;;5072500;28;20483;-82
2020/12/16 05:47:15;;;;;;;20.38;12.30;;;;;;;;;;5073220;28;20017;-81
2020/12/16 05:49:41;;;;;;;18.77;11.07;;;;;;;;;;5073287;28;20094;-74
2020/12/16 05:52:07;;;;;;;18.02;11.82;;;;;;;;;;5073457;28;20081;-82
2020/12/16 05:54:36;;;;;;;16.27;10.25;;;;;;;;;;5073231;28;20095;-82
2020/12/16 05:57:21;;;;;;;17.60;10.90;;;;;;;;;;5054771;28;20032;-82
2020/12/16 06:00:07;;;;;;;15.02;10.55;;;;;;;;;;5072801;28;20027;-82
2020/12/16 06:02:35;;;;;;;18.75;11.15;;;;;;;;;;5072589;28;20067;-82
2020/12/16 06:05:01;;;;;;;20.25;12.65;;;;;;;;;;5072799;28;20729;-80
2020/12/16 06:07:28;;;;;;;18.55;11.77;;;;;;;;;;5072415;28;20024;-82
2020/12/16 06:09:56;;;;;;;18.30;11.70;;;;;;;;;;5072548;28;20034;-79
2020/12/16 06:12:25;;;;;;;19.95;12.50;;;;;;;;;;5072384;28;20043;-82
2020/12/16 06:15:00;;;;;;;20.13;13.02;;;;;;;;;;5072653;28;20512;-82
2020/12/16 06:17:26;;;;;;;18.52;11.68;;;;;;;;;;5072498;28;20036;-82
2020/12/16 06:19:54;;;;;;;17.85;10.90;;;;;;;;;;5072314;28;20020;-81
2020/12/16 06:22:23;;;;;;;19.77;12.13;;;;;;;;;;5072471;28;20020;-82
2020/12/16 06:24:49;;;;;;;20.23;12.02;;;;;;;;;;5072097;28;20027;-81
2020/12/16 06:27:21;;;;;;;17.95;11.40;;;;;;;;;;5072295;28;20065;-82
2020/12/16 06:29:49;;;;;;;17.95;10.43;;;;;;;;;;5072369;28;20031;-81
2020/12/16 06:32:26;;;;;;;18.63;11.18;;;;;;;;;;5072391;28;20025;-82
2020/12/16 06:34:53;;;;;;;17.83;11.35;;;;;;;;;;5072200;28;20032;-81
2020/12/16 06:37:19;;;;;;;19.85;11.30;;;;;;;;;;5072217;28;20078;-81
2020/12/16 06:39:45;;;;;;;17.10;11.20;;;;;;;;;;5072159;28;20024;-81
2020/12/16 06:42:11;;;;;;;19.75;11.85;;;;;;;;;;5072322;28;20031;-77
2020/12/16 06:44:37;;;;;;;23.17;12.98;;;;;;;;;;5072339;28;20472;-81
2020/12/16 06:47:03;;;;;;;21.38;12.88;;;;;;;;;;5054006;28;20024;-81
2020/12/16 06:49:30;;;;;;;21.17;12.60;;;;;;;;;;5072116;28;20110;-82
2020/12/16 06:52:02;;;;;;;23.08;13.25;;;;;;;;;;5072305;28;20029;-81
2020/12/16 06:54:36;;;;;;;20.90;12.63;;;;;;;;;;5071986;28;20028;-81
2020/12/16 06:57:13;;;;;;;20.92;12.15;;;;;;;;;;5074425;28;20051;-79
2020/12/16 06:59:43;;;;;;;23.67;14.05;;;;;;;;;;5076379;28;20412;-79
2020/12/16 07:02:10;;;;;;;27.88;15.93;;;;;;;;;;5076345;28;20029;-80
2020/12/16 07:04:36;;;;;;;28.40;17.15;;;;;;;;;;5076124;28;20540;-81
2020/12/16 07:07:02;;;;;;;26.35;15.98;;;;;;;;;;5076089;28;20033;-80
2020/12/16 07:09:32;;;;;;;26.13;16.17;;;;;;;;;;5076022;28;20056;-81
2020/12/16 07:11:58;;;;;;;26.52;15.73;;;;;;;;;;5075988;28;20078;-81
2020/12/16 07:14:27;;;;;;;24.75;15.05;;;;;;;;;;5075922;28;20353;-80
2020/12/16 07:17:04;;;;;;;23.90;15.10;;;;;;;;;;5075995;28;20028;-80
2020/12/16 07:19:30;;;;;;;23.67;14.82;;;;;;;;;;5075920;28;20495;-81
2020/12/16 07:21:56;;;;;;;21.30;13.13;;;;;;;;;;5075683;28;20028;-81
2020/12/16 07:24:23;;;;;;;20.77;13.15;;;;;;;;;;5075823;28;20028;-77
2020/12/16 07:26:51;;;;;;;18.90;12.35;;;;;;;;;;5075506;28;20044;-81
2020/12/16 07:29:33;;;;;;;23.88;13.40;;;;;;;;;;5075559;28;20474;-81
2020/12/16 07:32:04;;;;;;;19.25;13.40;;;;;;;;;;5075702;28;20060;-81
2020/12/16 07:34:31;;;;;;;21.58;13.73;;;;;;;;;;5075489;28;20031;-80
2020/12/16 07:36:58;;;;;;;21.02;13.32;;;;;;;;;;5075386;28;20038;-81
2020/12/16 07:39:25;;;;;;;24.15;15.10;;;;;;;;;;5075457;28;20094;-80
2020/12/16 07:41:51;;;;;;;22.42;14.30;;;;;;;;;;5075443;28;20042;-80
2020/12/16 07:44:17;;;;;;;29.75;17.75;;;;;;;;;;5075427;28;20027;-80
2020/12/16 07:46:43;;;;;;;32.70;20.25;;;;;;;;;;5075309;28;20025;-80
2020/12/16 07:49:13;;;;;;;47.22;28.33;;;;;;;;;;5075314;28;20487;-79
2020/12/16 07:51:39;;;;;;;52.40;29.50;;;;;;;;;;5075482;28;20020;-80
2020/12/16 07:54:06;;;;;;;56.97;32.08;;;;;;;;;;5075090;28;20029;-80
2020/12/16 07:56:32;;;;;;;45.38;26.10;;;;;;;;;;5075014;28;20051;-79
2020/12/16 07:59:08;;;;;;;30.27;17.63;;;;;;;;;;5074965;28;20020;-80
2020/12/16 08:01:34;;;;;;;21.77;14.05;;;;;;;;;;5075035;28;20029;-80
2020/12/16 08:04:00;;;;;;;15.93;9.55;;;;;;;;;;5074922;28;20025;-80
2020/12/16 08:06:26;;;;;;;15.32;10.10;;;;;;;;;;5074900;28;20033;-81
2020/12/16 08:08:52;;;;;;;17.58;10.98;;;;;;;;;;5074262;28;20028;-80
2020/12/16 08:11:22;;;;;;;17.23;10.68;;;;;;;;;;5074858;28;20081;-79
2020/12/16 08:13:48;;;;;;;14.57;8.77;;;;;;;;;;5074962;28;20031;-79
2020/12/16 08:16:15;;;;;;;12.27;8.75;;;;;;;;;;5074606;28;20028;-81
2020/12/16 08:18:42;;;;;;;14.82;9.57;;;;;;;;;;5056885;28;20020;-76
2020/12/16 08:21:18;;;;;;;14.60;9.13;;;;;;;;;;5056821;28;20056;-80
2020/12/16 08:23:45;;;;;;;14.13;8.93;;;;;;;;;;5074469;28;20471;-81
2020/12/16 08:26:11;;;;;;;14.38;8.95;;;;;;;;;;5074567;28;20048;-81
2020/12/16 08:28:37;;;;;;;14.65;9.88;;;;;;;;;;5056676;28;20025;-80
2020/12/16 08:31:04;;;;;;;14.88;10.00;;;;;;;;;;5074468;28;20065;-80
2020/12/16 08:33:30;;;;;;;14.10;9.35;;;;;;;;;;5074434;28;20028;-81
2020/12/16 08:35:59;;;;;;;14.95;9.88;;;;;;;;;;5074534;28;20041;-81
2020/12/16 08:38:33;;;;;;;15.63;10.10;;;;;;;;;;5074377;28;20104;-81
2020/12/16 08:41:00;;;;;;;14.63;9.27;;;;;;;;;;5056450;28;20035;-80
2020/12/16 08:43:29;;;;;;;19.38;11.88;;;;;;;;;;5074459;28;20066;-80
2020/12/16 08:46:03;;;;;;;18.48;10.50;;;;;;;;;;5074242;28;20028;-79
2020/12/16 08:48:38;;;;;;;24.42;13.02;;;;;;;;;;5074219;28;20100;-78
2020/12/16 08:51:05;;;;;;;25.30;13.10;;;;;;;;;;5056137;28;20406;-80
2020/12/16 08:53:48;;;;;;;21.55;12.35;;;;;;;;;;5074524;28;20403;-80
2020/12/16 08:56:21;;;;;;;21.98;13.05;;;;;;;;;;5074091;28;20079;-81
2020/12/16 08:58:49;;;;;;;24.48;13.60;;;;;;;;;;5073985;28;20476;-81
2020/12/16 09:01:22;;;;;;;22.60;13.07;;;;;;;;;;5073956;28;20021;-81
2020/12/16 09:03:49;;;;;;;23.13;13.32;;;;;;;;;;5055846;28;20085;-81
2020/12/16 09:06:15;;;;;;;23.27;12.27;;;;;;;;;;5073696;28;20375;-80
2020/12/16 09:08:41;;;;;;;23.05;13.52;;;;;;;;;;5073760;28;20481;-79
2020/12/16 09:11:08;;;;;;;27.88;16.08;;;;;;;;;;5074216;28;20491;-81
2020/12/16 09:13:34;;;;;;;27.25;15.45;;;;;;;;;;5073691;28;20050;-81
2020/12/16 09:16:00;;;;;;;26.50;14.95;;;;;;;;;;5073471;28;20016;-81
2020/12/16 09:18:27;;;;;;;23.98;14.88;;;;;;;;;;5073579;28;20032;-81
2020/12/16 09:20:53;;;;;;;29.38;16.67;;;;;;;;;;5072416;28;20483;-81
2020/12/16 09:23:27;;;;;;;30.40;17.25;;;;;;;;;;5073449;28;20365;-80
2020/12/16 09:25:55;;;;;;;28.55;16.20;;;;;;;;;;5073268;28;20491;-81
2020/12/16 09:28:21;;;;;;;28.25;15.70;;;;;;;;;;5073515;28;20031;-81
2020/12/16 09:30:47;;;;;;;20.42;12.52;;;;;;;;;;5055445;28;20028;-80
2020/12/16 09:33:15;;;;;;;26.00;13.50;;;;;;;;;;5073286;28;20028;-81
2020/12/16 09:35:41;;;;;;;23.67;12.90;;;;;;;;;;5073133;28;20024;-75
2020/12/16 09:38:14;;;;;;;21.60;12.65;;;;;;;;;;5073348;28;20055;-81
2020/12/16 09:40:41;;;;;;;26.70;13.97;;;;;;;;;;5073356;28;20078;-74
2020/12/16 09:43:10;;;;;;;30.00;14.88;;;;;;;;;;5073456;28;20024;-81
2020/12/16 09:45:36;;;;;;;23.88;13.13;;;;;;;;;;5073228;28;20031;-81
2020/12/16 09:48:02;;;;;;;24.40;13.45;;;;;;;;;;5054942;28;20020;-82
2020/12/16 09:50:29;;;;;;;25.52;13.85;;;;;;;;;;5072966;28;20112;-81
2020/12/16 09:52:59;;;;;;;21.05;13.07;;;;;;;;;;5073076;28;20341;-81
2020/12/16 09:55:26;;;;;;;26.20;14.82;;;;;;;;;;5072997;28;20074;-81
2020/12/16 09:57:59;;;;;;;24.83;15.40;;;;;;;;;;5072781;28;20032;-81
2020/12/16 10:00:25;;;;;;;32.70;16.98;;;;;;;;;;5072965;28;20020;-81
2020/12/16 10:02:56;;;;;;;26.75;15.90;;;;;;;;;;5072654;28;20029;-81
2020/12/16 10:05:22;;;;;;;25.05;14.32;;;;;;;;;;5072702;28;20051;-80
2020/12/16 10:07:48;;;;;;;25.92;14.85;;;;;;;;;;5072599;28;20032;-81
2020/12/16 10:10:14;;;;;;;43.28;22.77;;;;;;;;;;5072523;28;20021;-81
2020/12/16 10:12:40;;;;;;;47.80;20.60;;;;;;;;;;5072860;28;20502;-81
2020/12/16 10:15:06;;;;;;;125.75;45.00;;;;;;;;;;5072754;28;20074;-81
2020/12/16 10:17:32;;;;;;;95.78;40.00;;;;;;;;;;5072273;28;20039;-80
2020/12/16 10:20:01;;;;;;;31.13;15.77;;;;;;;;;;5072322;28;20021;-80
2020/12/16 10:22:27;;;;;;;22.63;12.93;;;;;;;;;;5072509;28;20036;-82
2020/12/16 10:24:53;;;;;;;20.50;12.07;;;;;;;;;;5072212;28;20025;-82
2020/12/16 10:27:19;;;;;;;17.95;10.82;;;;;;;;;;5072495;28;20021;-81
2020/12/16 10:29:45;;;;;;;22.15;12.32;;;;;;;;;;5072324;28;20031;-82
2020/12/16 10:32:11;;;;;;;21.13;12.80;;;;;;;;;;5072091;28;20380;-77
2020/12/16 10:34:37;;;;;;;19.58;11.02;;;;;;;;;;5072485;28;20424;-82
2020/12/16 10:37:03;;;;;;;21.10;11.40;;;;;;;;;;5072214;28;20034;-82
2020/12/16 10:39:29;;;;;;;14.75;8.68;;;;;;;;;;5072342;28;20032;-83
2020/12/16 10:41:59;;;;;;;13.90;8.18;;;;;;;;;;5072262;28;20476;-83
2020/12/16 10:44:26;;;;;;;11.90;7.10;;;;;;;;;;5072286;28;20020;-82
2020/12/16 10:46:54;;;;;;;14.23;8.52;;;;;;;;;;5072223;28;20484;-82
2020/12/16 10:49:21;;;;;;;13.85;8.15;;;;;;;;;;5072036;28;20028;-82
2020/12/16 10:51:47;;;;;;;12.55;7.90;;;;;;;;;;5072156;28;20056;-82
2020/12/16 10:54:13;;;;;;;13.13;8.02;;;;;;;;;;5072016;28;20021;-82
2020/12/16 10:56:39;;;;;;;12.75;7.50;;;;;;;;;;5072236;28;20044;-82
2020/12/16 10:59:05;;;;;;;13.15;8.00;;;;;;;;;;5072006;28;20028;-83
2020/12/16 11:01:36;;;;;;;11.32;6.40;;;;;;;;;;5072111;28;20025;-82
2020/12/16 11:04:06;;;;;;;10.65;6.32;;;;;;;;;;5071913;28;20499;-81
2020/12/16 11:06:32;;;;;;;8.90;5.63;;;;;;;;;;5071945;28;20527;-81
2020/12/16 11:08:58;;;;;;;10.40;6.60;;;;;;;;;;5072002;28;20035;-82
2020/12/16 11:11:24;;;;;;;12.13;6.90;;;;;;;;;;5071981;28;20059;-82
2020/12/16 11:13:52;;;;;;;11.27;7.03;;;;;;;;;;5071705;28;20036;-82
2020/12/16 11:16:18;;;;;;;12.85;7.68;;;;;;;;;;5072010;28;20116;-82
2020/12/16 11:18:45;;;;;;;13.02;7.88;;;;;;;;;;5071967;28;20021;-82
2020/12/16 11:21:11;;;;;;;10.98;6.10;;;;;;;;;;5071896;28;20031;-78
2020/12/16 11:23:37;;;;;;;10.90;6.25;;;;;;;;;;5072059;28;20534;-82
2020/12/16 11:26:04;;;;;;;12.70;6.97;;;;;;;;;;5053685;28;20036;-82
2020/12/16 11:28:30;;;;;;;12.20;7.70;;;;;;;;;;5071849;28;20417;-82
2020/12/16 11:30:56;;;;;;;13.32;8.07;;;;;;;;;;5071713;28;20047;-81
2020/12/16 11:33:22;;;;;;;15.80;9.10;;;;;;;;;;5071644;28;20029;-82
2020/12/16 11:35:48;;;;;;;12.85;7.75;;;;;;;;;;5071688;28;20380;-82
2020/12/16 11:38:14;;;;;;;11.77;7.10;;;;;;;;;;5071657;28;20491;-81
2020/12/16 11:40:40;;;;;;;12.27;6.55;;;;;;;;;;5071901;28;20100;-83
2020/12/16 11:43:06;;;;;;;12.50;6.75;;;;;;;;;;5072555;28;20074;-81
2020/12/16 11:45:32;;;;;;;12.43;8.25;;;;;;;;;;5075470;28;20074;-83
2020/12/16 11:48:00;;;;;;;14.90;8.50;;;;;;;;;;5057531;28;20024;-82
2020/12/16 11:50:26;;;;;;;15.50;8.18;;;;;;;;;;5075485;28;20032;-82
2020/12/16 11:52:52;;;;;;;16.30;9.32;;;;;;;;;;5075181;28;20024;-83
2020/12/16 11:55:18;;;;;;;14.85;9.38;;;;;;;;;;5075194;28;20025;-83
2020/12/16 11:57:45;;;;;;;13.85;8.05;;;;;;;;;;5075139;28;20032;-83
2020/12/16 12:00:11;;;;;;;12.43;7.63;;;;;;;;;;5075169;28;20027;-83
2020/12/16 12:02:37;;;;;;;13.85;7.90;;;;;;;;;;5075242;28;20032;-83
2020/12/16 12:05:03;;;;;;;11.07;6.55;;;;;;;;;;5075128;28;20464;-83
2020/12/16 12:07:29;;;;;;;14.10;7.72;;;;;;;;;;5074937;28;20055;-83
2020/12/16 12:09:55;;;;;;;14.95;8.65;;;;;;;;;;5074759;28;20033;-83
2020/12/16 12:12:21;;;;;;;16.08;8.88;;;;;;;;;;5074893;28;20025;-82
2020/12/16 12:14:47;;;;;;;13.88;7.47;;;;;;;;;;5074938;28;20028;-83
2020/12/16 12:17:13;;;;;;;14.63;8.48;;;;;;;;;;5074797;28;20041;-83
2020/12/16 12:19:42;;;;;;;16.58;8.85;;;;;;;;;;5074998;28;20082;-83
2020/12/16 12:22:08;;;;;;;17.15;10.13;;;;;;;;;;5074728;28;20021;-82
2020/12/16 12:24:34;;;;;;;15.13;8.77;;;;;;;;;;5074690;28;20468;-83
2020/12/16 12:27:03;;;;;;;19.55;10.95;;;;;;;;;;5074575;28;20799;-81
2020/12/16 12:29:29;;;;;;;17.42;10.45;;;;;;;;;;5074496;28;20021;-81
2020/12/16 12:31:55;;;;;;;19.17;9.82;;;;;;;;;;5074515;28;20029;-83
2020/12/16 12:34:22;;;;;;;18.75;11.93;;;;;;;;;;5072728;28;20021;-83
2020/12/16 12:36:48;;;;;;;16.30;9.88;;;;;;;;;;5074271;28;20040;-83
2020/12/16 12:39:14;;;;;;;17.33;10.00;;;;;;;;;;5056192;28;20020;-80
2020/12/16 12:41:40;;;;;;;15.30;9.10;;;;;;;;;;5074377;28;20047;-86
2020/12/16 12:44:06;;;;;;;17.48;9.98;;;;;;;;;;5062706;28;20017;-82
2020/12/16 12:46:33;;;;;;;15.38;8.80;;;;;;;;;;5051734;28;20032;-80
2020/12/16 12:48:59;;;;;;;17.00;8.43;;;;;;;;;;5051769;28;20032;-81
2020/12/16 12:51:28;;;;;;;15.05;8.32;;;;;;;;;;5051650;28;20056;-83
2020/12/16 12:53:54;;;;;;;15.88;9.20;;;;;;;;;;5051378;28;20028;-84
2020/12/16 12:56:21;;;;;;;15.13;9.07;;;;;;;;;;5051049;28;20115;-82
2020/12/16 12:58:47;;;;;;;17.35;8.98;;;;;;;;;;5051476;28;20029;-85
2020/12/16 13:01:13;;;;;;;16.15;9.02;;;;;;;;;;5051519;28;20083;-79
2020/12/16 13:03:40;;;;;;;19.88;11.65;;;;;;;;;;5051781;28;20032;-82
2020/12/16 13:06:09;;;;;;;15.80;10.32;;;;;;;;;;5051502;28;20036;-83
2020/12/16 13:08:36;;;;;;;13.27;6.85;;;;;;;;;;5050860;28;20021;-83
2020/12/16 13:11:04;;;;;;;14.55;6.90;;;;;;;;;;5051232;28;20029;-79
2020/12/16 13:13:33;;;;;;;11.73;7.43;;;;;;;;;;5051189;28;20028;-80
2020/12/16 13:15:59;;;;;;;12.05;6.57;;;;;;;;;;5032976;28;20116;-83
2020/12/16 13:18:25;;;;;;;9.45;5.80;;;;;;;;;;5050220;28;20032;-83
2020/12/16 13:20:54;;;;;;;10.75;6.03;;;;;;;;;;5050109;28;20021;-77
2020/12/16 13:23:20;;;;;;;10.65;7.03;;;;;;;;;;5050467;28;20112;-81
2020/12/16 13:25:46;;;;;;;10.52;6.88;;;;;;;;;;5050415;28;20076;-84
2020/12/16 13:28:12;;;;;;;12.13;7.05;;;;;;;;;;5050441;28;20032;-81
2020/12/16 13:30:38;;;;;;;13.38;7.03;;;;;;;;;;5050840;28;20520;-76
2020/12/16 13:33:04;;;;;;;10.55;7.05;;;;;;;;;;5050523;28;20017;-83
2020/12/16 13:35:30;;;;;;;12.50;6.72;;;;;;;;;;5050659;28;20029;-83
2020/12/16 13:37:56;;;;;;;11.57;7.50;;;;;;;;;;5050697;28;20040;-83
2020/12/16 13:40:22;;;;;;;11.75;6.63;;;;;;;;;;5050686;28;20052;-81
2020/12/16 13:42:51;;;;;;;14.30;8.07;;;;;;;;;;5050629;28;20100;-83
2020/12/16 13:45:17;;;;;;;13.23;7.63;;;;;;;;;;5070090;28;20074;-83
2020/12/16 13:47:43;;;;;;;13.77;7.85;;;;;;;;;;5042995;28;20025;-81
2020/12/16 13:50:09;;;;;;;14.38;9.80;;;;;;;;;;5050751;28;20377;-82
2020/12/16 13:52:37;;;;;;;13.07;8.60;;;;;;;;;;5050657;28;20029;-82
2020/12/16 13:55:03;;;;;;;13.10;7.90;;;;;;;;;;5032193;28;20036;-81
2020/12/16 13:57:29;;;;;;;14.23;8.38;;;;;;;;;;5050196;28;20358;-80
2020/12/16 13:59:57;;;;;;;16.10;8.70;;;;;;;;;;5050131;28;20497;-77
2020/12/16 14:02:23;;;;;;;14.68;8.60;;;;;;;;;;5050147;28;20032;-82
2020/12/16 14:04:49;;;;;;;15.18;9.35;;;;;;;;;;5049880;28;20548;-82
2020/12/16 14:07:15;;;;;;;17.45;8.60;;;;;;;;;;5049306;28;20071;-83
2020/12/16 14:09:41;;;;;;;17.45;8.68;;;;;;;;;;5050276;28;20028;-83
2020/12/16 14:12:07;;;;;;;12.75;8.38;;;;;;;;;;5050188;28;20036;-79
2020/12/16 14:14:34;;;;;;;17.65;9.27;;;;;;;;;;5050091;28;20032;-82
2020/12/16 14:17:01;;;;;;;16.27;9.10;;;;;;;;;;5049870;28;20139;-82
2020/12/16 14:19:27;;;;;;;14.13;7.82;;;;;;;;;;5050327;28;20499;-88
2020/12/16 14:21:57;;;;;;;12.88;7.88;;;;;;;;;;5051254;28;20044;-85
2020/12/16 14:24:23;;;;;;;12.88;7.72;;;;;;;;;;5050821;28;20021;-87
2020/12/16 14:26:49;;;;;;;13.70;8.50;;;;;;;;;;5050589;28;20086;-88